Time;durP1;ratioP1;P1;durP2;ratioP2;P2;SDS_P1;SDS_P2;PMS_P1;PMS_P2;Temp;Humidity;BMP_temperature;BMP_pressure;BME280_temperature;BME280_humidity;BME280_pressure;Samples;Min_cycle;Max_cycle;Signal;HPM_P1;HPM_P2
2022/03/13 00:01:21;;;;;;;14.52;8.85;;;10.40;60.00;;;;;;6159387;23;20022;-84
2022/03/13 00:03:55;;;;;;;13.77;8.00;;;10.40;59.20;;;;;;6141554;23;20032;-84
2022/03/13 00:06:32;;;;;;;12.18;8.27;;;10.40;59.60;;;;;;6161025;23;20029;-85
2022/03/13 00:09:18;;;;;;;18.20;8.60;;;10.40;59.40;;;;;;6162783;23;20056;-85
2022/03/13 00:11:54;;;;;;;18.95;7.85;;;10.40;58.70;;;;;;6189114;23;20022;-85
2022/03/13 00:14:42;;;;;;;12.95;7.97;;;10.40;59.40;;;;;;6161789;23;20029;-85
2022/03/13 00:17:21;;;;;;;14.20;8.10;;;10.40;59.30;;;;;;6160856;23;20421;-86
2022/03/13 00:20:00;;;;;;;20.33;8.43;;;10.40;59.30;;;;;;6187898;23;20101;-85
2022/03/13 00:22:46;;;;;;;16.58;8.23;;;10.40;59.70;;;;;;6165334;23;20025;-84
2022/03/13 00:25:20;;;;;;;12.45;8.05;;;10.40;59.60;;;;;;6160869;23;20536;-85
2022/03/13 00:27:59;;;;;;;14.15;8.65;;;10.40;59.60;;;;;;6187607;23;20026;-85
2022/03/13 00:30:39;;;;;;;13.13;7.47;;;10.40;59.30;;;;;;6160895;23;20021;-85
2022/03/13 00:33:11;;;;;;;13.57;8.05;;;10.40;59.30;;;;;;6131970;23;20444;-84
2022/03/13 00:35:46;;;;;;;13.38;7.57;;;10.40;60.10;;;;;;6156657;23;20058;-84
2022/03/13 00:38:25;;;;;;;13.05;7.78;;;10.40;59.90;;;;;;6156372;23;20022;-85
2022/03/13 00:41:09;;;;;;;12.35;7.20;;;10.40;60.00;;;;;;6132429;23;20439;-85
2022/03/13 00:43:52;;;;;;;12.13;7.78;;;10.40;60.00;;;;;;6128079;23;20025;-85
2022/03/13 00:46:29;;;;;;;14.40;7.80;;;10.40;60.10;;;;;;6129879;23;20026;-84
2022/03/13 00:49:00;;;;;;;13.60;7.68;;;10.30;59.90;;;;;;6128758;23;20018;-84
2022/03/13 00:51:37;;;;;;;13.15;7.07;;;10.40;59.80;;;;;;6129838;23;20084;-85
2022/03/13 00:54:06;;;;;;;10.57;6.78;;;10.40;59.50;;;;;;6130602;23;20018;-85
2022/03/13 00:56:40;;;;;;;11.45;6.80;;;10.40;59.50;;;;;;6131405;23;20029;-84
2022/03/13 00:59:12;;;;;;;10.40;6.38;;;10.50;59.70;;;;;;6159421;23;20034;-84
2022/03/13 01:01:45;;;;;;;16.40;6.30;;;10.40;59.60;;;;;;6133662;23;20054;-84
2022/03/13 01:04:18;;;;;;;12.13;6.82;;;10.40;59.80;;;;;;6132727;23;20014;-84
2022/03/13 01:06:57;;;;;;;9.88;6.38;;;10.50;59.60;;;;;;6134805;23;20029;-84
2022/03/13 01:09:30;;;;;;;10.68;5.93;;;10.50;60.20;;;;;;6132067;23;20475;-84
2022/03/13 01:12:08;;;;;;;11.85;5.82;;;10.40;60.20;;;;;;6130962;23;20026;-85
2022/03/13 01:14:46;;;;;;;9.38;5.68;;;10.40;59.70;;;;;;6133995;23;20803;-84
2022/03/13 01:17:20;;;;;;;9.05;5.75;;;10.50;59.40;;;;;;6132938;23;20018;-85
2022/03/13 01:20:21;;;;;;;8.35;5.20;;;10.50;59.70;;;;;;6136661;23;20061;-85
2022/03/13 01:22:53;;;;;;;9.05;5.20;;;10.40;60.20;;;;;;6132336;23;20077;-84
2022/03/13 01:25:25;;;;;;;9.20;5.10;;;10.40;60.10;;;;;;6157791;23;20069;-84
2022/03/13 01:27:55;;;;;;;9.30;5.03;;;10.40;59.80;;;;;;6132202;23;20041;-84
2022/03/13 01:30:33;;;;;;;10.25;5.13;;;10.50;59.90;;;;;;6158916;23;20040;-84
2022/03/13 01:33:03;;;;;;;9.80;5.40;;;10.40;60.50;;;;;;6132072;23;20033;-85
2022/03/13 01:35:34;;;;;;;;;;;10.40;60.00;;;;;;6134190;23;20034;-84
2022/03/13 01:38:05;;;;;;;12.18;5.30;;;10.40;60.30;;;;;;6132339;23;20455;-84
2022/03/13 01:40:44;;;;;;;9.43;5.43;;;10.40;60.50;;;;;;6154040;23;20026;-84
2022/03/13 01:43:15;;;;;;;8.18;4.93;;;10.30;60.40;;;;;;6131436;23;20472;-85
2022/03/13 01:45:56;;;;;;;8.50;5.00;;;10.30;60.90;;;;;;6159356;23;20022;-85
2022/03/13 01:48:29;;;;;;;8.20;5.22;;;10.30;60.70;;;;;;6157050;23;20022;-85
2022/03/13 01:50:58;;;;;;;;;;;10.20;60.90;;;;;;6132709;23;20081;-85
2022/03/13 01:53:31;;;;;;;8.40;5.28;;;10.20;61.00;;;;;;6133405;23;19916;-86
2022/03/13 01:56:00;;;;;;;9.80;5.10;;;10.10;61.00;;;;;;6158164;23;20032;-85
2022/03/13 01:58:39;;;;;;;8.20;5.05;;;10.10;61.10;;;;;;6132248;23;20050;-85
2022/03/13 02:01:20;;;;;;;9.68;5.80;;;10.00;61.20;;;;;;6156690;23;20022;-87
2022/03/13 02:03:57;;;;;;;10.48;5.57;;;10.00;61.50;;;;;;6134107;23;20037;-84
2022/03/13 02:07:07;;;;;;;9.60;5.57;;;10.00;61.10;;;;;;6039212;23;20047;-86
2022/03/13 02:09:37;;;;;;;10.40;6.07;;;10.00;61.50;;;;;;6015875;23;20172;-85
2022/03/13 02:12:20;;;;;;;9.30;6.50;;;9.90;61.90;;;;;;6039887;23;20092;-86
2022/03/13 02:15:26;;;;;;;9.02;5.55;;;9.90;61.80;;;;;;6000646;23;20633;-86
2022/03/13 02:18:17;;;;;;;8.43;5.20;;;9.90;61.90;;;;;;6022636;23;20027;-86
2022/03/13 02:20:49;;;;;;;10.00;4.95;;;9.80;62.30;;;;;;6016128;23;20028;-86
2022/03/13 02:23:33;;;;;;;7.60;4.97;;;9.70;62.40;;;;;;6040458;23;20648;-86
2022/03/13 02:26:05;;;;;;;8.32;5.32;;;9.70;62.70;;;;;;6039945;23;20080;-86
2022/03/13 02:28:40;;;;;;;10.63;5.80;;;9.70;62.70;;;;;;6018510;23;20071;-86
2022/03/13 02:31:25;;;;;;;9.90;6.07;;;9.60;62.80;;;;;;6023741;23;20836;-86
2022/03/13 02:34:36;;;;;;;11.80;5.97;;;9.60;63.10;;;;;;6046900;23;20904;-87
2022/03/13 02:37:41;;;;;;;10.50;6.65;;;9.50;63.10;;;;;;5934527;24;20014;-86
2022/03/13 02:40:41;;;;;;;13.10;6.70;;;9.50;63.50;;;;;;5971211;23;20384;-87
2022/03/13 02:43:11;;;;;;;9.50;6.13;;;9.40;63.40;;;;;;6042205;23;20028;-85
2022/03/13 02:46:30;;;;;;;13.52;7.47;;;9.40;63.80;;;;;;5901812;24;20033;-85
2022/03/13 02:49:22;;;;;;;13.23;7.55;;;9.40;63.70;;;;;;5940007;23;20456;-86
2022/03/13 02:52:05;;;;;;;10.80;7.10;;;9.30;63.80;;;;;;6019552;23;20069;-85
2022/03/13 02:55:04;;;;;;;13.65;7.82;;;9.30;63.90;;;;;;6023126;23;20033;-85
2022/03/13 02:57:52;;;;;;;11.87;8.00;;;9.20;64.00;;;;;;5901265;24;20852;-86
2022/03/13 03:00:53;;;;;;;13.27;8.70;;;9.20;64.20;;;;;;6002138;23;20241;-86
2022/03/13 03:03:40;;;;;;;12.93;7.07;;;9.20;64.40;;;;;;6040227;23;20019;-87
2022/03/13 03:06:13;;;;;;;11.38;6.25;;;9.10;64.60;;;;;;6016961;23;20727;-85
2022/03/13 03:08:47;;;;;;;11.68;7.15;;;9.10;64.80;;;;;;5997741;23;20024;-85
2022/03/13 03:11:39;;;;;;;12.82;7.68;;;9.10;64.80;;;;;;6019834;23;20057;-87
2022/03/13 03:14:15;;;;;;;10.52;6.60;;;9.10;64.80;;;;;;6144689;23;20022;-86
2022/03/13 03:16:49;;;;;;;11.88;7.55;;;9.10;64.50;;;;;;6156618;23;20092;-86
2022/03/13 03:19:28;;;;;;;12.15;7.72;;;9.20;64.50;;;;;;6157448;23;20101;-86
2022/03/13 03:21:56;;;;;;;12.82;7.50;;;9.10;64.70;;;;;;6158830;23;20024;-85
2022/03/13 03:24:52;;;;;;;11.65;6.70;;;9.10;64.80;;;;;;6157211;23;20038;-85
2022/03/13 03:27:34;;;;;;;13.20;7.30;;;9.20;64.80;;;;;;6145838;23;20024;-85
2022/03/13 03:30:19;;;;;;;12.43;7.63;;;9.20;64.60;;;;;;6158230;23;20121;-86
2022/03/13 03:33:12;;;;;;;11.88;7.35;;;9.20;64.40;;;;;;6157623;23;20030;-85
2022/03/13 03:35:55;;;;;;;12.98;6.85;;;9.20;64.30;;;;;;6157515;23;20022;-87
2022/03/13 03:38:47;;;;;;;11.38;7.35;;;9.20;64.60;;;;;;6138915;23;20037;-85
2022/03/13 03:41:41;;;;;;;13.50;8.18;;;9.20;64.70;;;;;;6156513;23;20859;-86
2022/03/13 03:44:17;;;;;;;;;;;9.10;65.10;;;;;;6157176;23;20036;-85
2022/03/13 03:47:05;;;;;;;11.68;7.45;;;9.10;65.10;;;;;;6157638;23;19913;-85
2022/03/13 03:49:40;;;;;;;13.73;8.00;;;9.10;64.90;;;;;;6157482;23;20022;-85
2022/03/13 03:52:16;;;;;;;13.35;7.93;;;9.10;65.20;;;;;;6156021;23;20022;-85
2022/03/13 03:54:57;;;;;;;13.32;7.68;;;9.00;65.30;;;;;;6157122;23;20026;-85
2022/03/13 03:57:31;;;;;;;13.65;8.20;;;9.00;65.20;;;;;;6156198;23;20097;-85
2022/03/13 04:00:27;;;;;;;11.63;7.72;;;9.00;65.30;;;;;;6156602;23;20026;-85
2022/03/13 04:02:58;;;;;;;13.95;8.50;;;8.90;65.30;;;;;;6158277;23;20026;-86
2022/03/13 04:05:47;;;;;;;14.95;8.13;;;9.00;65.60;;;;;;6150508;23;20081;-85
2022/03/13 04:08:29;;;;;;;12.35;7.80;;;8.90;65.50;;;;;;6131850;23;20101;-85
2022/03/13 04:11:32;;;;;;;14.38;8.20;;;8.90;65.90;;;;;;6158745;23;20961;-85
2022/03/13 04:14:09;;;;;;;13.23;8.13;;;8.90;65.70;;;;;;6158285;23;20438;-85
2022/03/13 04:16:55;;;;;;;13.93;8.52;;;8.90;65.60;;;;;;6157111;23;20022;-84
2022/03/13 04:19:38;;;;;;;18.10;9.90;;;9.00;65.50;;;;;;6156913;23;20828;-85
2022/03/13 04:22:20;;;;;;;16.03;10.10;;;9.00;64.50;;;;;;6154750;23;20034;-84
2022/03/13 04:24:50;;;;;;;17.10;9.20;;;9.10;64.40;;;;;;6153115;23;20026;-84
2022/03/13 04:27:21;;;;;;;16.52;10.05;;;9.10;64.40;;;;;;6156332;23;20052;-85
2022/03/13 04:30:11;;;;;;;17.40;9.93;;;9.00;64.70;;;;;;6153663;23;20044;-85
2022/03/13 04:32:45;;;;;;;16.02;9.93;;;9.10;65.00;;;;;;6156779;23;20026;-85
2022/03/13 04:35:27;;;;;;;14.95;9.63;;;9.00;65.50;;;;;;6159477;23;20030;-85
2022/03/13 04:38:23;;;;;;;17.65;11.32;;;8.90;65.80;;;;;;6152490;23;20033;-85
2022/03/13 04:41:06;;;;;;;18.77;11.05;;;8.90;66.00;;;;;;6146188;23;20068;-85
2022/03/13 04:43:51;;;;;;;18.52;10.85;;;8.90;66.10;;;;;;6152720;23;20022;-83
2022/03/13 04:46:19;;;;;;;16.38;10.57;;;8.80;66.00;;;;;;6157825;23;20113;-84
2022/03/13 04:49:06;;;;;;;18.23;10.65;;;8.80;66.10;;;;;;6159208;23;20022;-85
2022/03/13 04:51:45;;;;;;;16.23;10.63;;;8.80;65.70;;;;;;6147788;23;20026;-84
2022/03/13 04:54:48;;;;;;;18.67;11.30;;;8.70;65.80;;;;;;6159519;23;20010;-85
2022/03/13 04:57:56;;;;;;;18.27;10.80;;;8.70;65.90;;;;;;6158253;23;20390;-85
2022/03/13 05:00:38;;;;;;;18.55;11.00;;;8.70;66.00;;;;;;6131535;23;20014;-85
2022/03/13 05:03:14;;;;;;;18.50;10.73;;;8.60;66.00;;;;;;6160842;23;20536;-85
2022/03/13 05:05:43;;;;;;;19.13;10.93;;;8.60;66.10;;;;;;6160245;23;20072;-84
2022/03/13 05:08:15;;;;;;;17.38;11.57;;;8.60;65.90;;;;;;6156829;23;20026;-85
2022/03/13 05:10:50;;;;;;;19.50;11.40;;;8.60;65.80;;;;;;6182054;23;20054;-84
2022/03/13 05:13:22;;;;;;;19.75;11.90;;;8.50;66.00;;;;;;6157213;23;20026;-84
2022/03/13 05:16:03;;;;;;;18.13;12.03;;;8.50;63.90;;;;;;6158802;23;20110;-85
2022/03/13 05:18:32;;;;;;;19.50;11.82;;;8.50;65.10;;;;;;6158743;23;20898;-83
2022/03/13 05:21:12;;;;;;;18.88;11.63;;;8.50;65.00;;;;;;6159706;23;20044;-85
2022/03/13 05:23:45;;;;;;;24.40;11.95;;;8.50;64.10;;;;;;6157376;23;20042;-84
2022/03/13 05:26:26;;;;;;;26.40;11.80;;;8.50;63.50;;;;;;6157349;23;20037;-84
2022/03/13 05:29:00;;;;;;;22.73;12.60;;;8.50;61.30;;;;;;6182730;23;20602;-84
2022/03/13 05:31:34;;;;;;;18.67;11.43;;;8.60;61.20;;;;;;6157875;23;20050;-84
2022/03/13 05:34:11;;;;;;;20.45;12.23;;;8.60;60.80;;;;;;6157971;23;20026;-85
2022/03/13 05:36:45;;;;;;;22.45;11.85;;;8.60;60.20;;;;;;6158125;23;20029;-85
2022/03/13 05:39:15;;;;;;;19.90;12.00;;;8.60;59.90;;;;;;6159266;23;20018;-83
2022/03/13 05:41:53;;;;;;;19.80;11.52;;;8.60;59.50;;;;;;6159448;23;20096;-84
2022/03/13 05:44:42;;;;;;;18.65;11.88;;;8.60;60.20;;;;;;6049201;23;20399;-84
2022/03/13 05:47:18;;;;;;;21.08;12.30;;;8.60;60.30;;;;;;6147858;23;20026;-84
2022/03/13 05:50:05;;;;;;;24.27;11.98;;;8.50;61.90;;;;;;6020012;23;20034;-84
2022/03/13 05:52:40;;;;;;;19.20;11.65;;;8.40;63.20;;;;;;6141750;23;20078;-85
2022/03/13 05:55:16;;;;;;;20.83;12.52;;;8.30;64.10;;;;;;6159055;23;20093;-85
2022/03/13 05:57:45;;;;;;;24.13;13.05;;;8.30;63.90;;;;;;6182465;23;20022;-84
2022/03/13 06:00:21;;;;;;;18.95;12.75;;;8.20;65.70;;;;;;6158285;23;20036;-84
2022/03/13 06:03:09;;;;;;;22.23;13.60;;;8.20;64.90;;;;;;6159749;23;20128;-84
2022/03/13 06:05:43;;;;;;;20.85;12.18;;;8.10;65.50;;;;;;6160164;23;20018;-84
2022/03/13 06:08:39;;;;;;;20.85;12.35;;;8.10;66.00;;;;;;6160011;23;20026;-84
2022/03/13 06:11:13;;;;;;;24.85;12.85;;;8.00;66.80;;;;;;6124971;23;20022;-84
2022/03/13 06:13:54;;;;;;;20.42;11.95;;;8.00;66.80;;;;;;6157777;23;20773;-84
2022/03/13 06:16:24;;;;;;;25.08;12.75;;;7.90;66.40;;;;;;6157317;23;20048;-84
2022/03/13 06:18:51;;;;;;;18.90;11.70;;;7.90;66.80;;;;;;6157123;23;20061;-83
2022/03/13 06:21:23;;;;;;;20.67;11.88;;;7.90;66.30;;;;;;6157073;23;20568;-84
2022/03/13 06:23:57;;;;;;;22.15;12.18;;;7.90;66.90;;;;;;6156842;23;20021;-84
2022/03/13 06:26:36;;;;;;;19.20;12.23;;;7.90;66.70;;;;;;6156007;23;20101;-84
2022/03/13 06:29:03;;;;;;;21.92;12.23;;;7.90;67.50;;;;;;6158656;23;20433;-85
2022/03/13 06:31:32;;;;;;;19.40;11.75;;;7.90;66.10;;;;;;6165243;23;20827;-84
2022/03/13 06:34:06;;;;;;;21.25;12.05;;;8.00;66.30;;;;;;6162864;23;20036;-84
2022/03/13 06:36:39;;;;;;;19.52;12.48;;;8.00;66.10;;;;;;6187106;23;20026;-84
2022/03/13 06:39:10;;;;;;;22.50;12.15;;;7.90;66.90;;;;;;6162299;23;20431;-83
2022/03/13 06:41:47;;;;;;;19.70;11.82;;;8.00;64.90;;;;;;6189237;23;20104;-84
2022/03/13 06:44:20;;;;;;;20.58;12.20;;;8.10;65.50;;;;;;6160367;23;20085;-84
2022/03/13 06:46:57;;;;;;;21.17;11.90;;;8.10;65.00;;;;;;6187183;23;20100;-85
2022/03/13 06:49:46;;;;;;;20.30;12.52;;;8.10;64.80;;;;;;6177093;23;20121;-84
2022/03/13 06:52:16;;;;;;;18.65;11.68;;;8.10;65.50;;;;;;6160728;23;20035;-84
2022/03/13 06:54:46;;;;;;;19.35;11.65;;;8.10;65.10;;;;;;6188195;23;20112;-84
2022/03/13 06:57:24;;;;;;;19.98;12.15;;;8.10;64.70;;;;;;6165248;23;20032;-84
2022/03/13 06:59:50;;;;;;;19.35;12.05;;;8.00;65.10;;;;;;6162022;23;20029;-84
2022/03/13 07:02:18;;;;;;;21.85;12.18;;;8.00;64.60;;;;;;6160809;23;20017;-85
2022/03/13 07:04:48;;;;;;;21.20;12.57;;;8.00;64.60;;;;;;6161638;23;20032;-84
2022/03/13 07:07:15;;;;;;;18.30;12.50;;;8.00;64.70;;;;;;6187182;23;20036;-83
2022/03/13 07:09:41;;;;;;;19.25;12.10;;;8.00;65.40;;;;;;6160566;23;20587;-83
2022/03/13 07:12:12;;;;;;;17.58;11.00;;;8.00;65.00;;;;;;6161744;23;20487;-84
2022/03/13 07:14:50;;;;;;;18.63;11.25;;;8.00;65.20;;;;;;6161360;23;20037;-85
2022/03/13 07:17:30;;;;;;;18.25;11.27;;;8.10;64.60;;;;;;6188463;23;20121;-85
2022/03/13 07:19:58;;;;;;;18.65;10.98;;;8.10;63.90;;;;;;6161816;23;20730;-84
2022/03/13 07:22:45;;;;;;;19.10;11.50;;;8.10;63.40;;;;;;6161398;23;20919;-85
2022/03/13 07:25:18;;;;;;;16.13;11.10;;;8.20;62.70;;;;;;6186885;23;20014;-85
2022/03/13 07:28:10;;;;;;;17.27;10.35;;;8.30;63.80;;;;;;6163937;23;20022;-84
2022/03/13 07:30:38;;;;;;;22.10;11.13;;;8.40;61.70;;;;;;6160248;23;20096;-83
2022/03/13 07:33:11;;;;;;;16.50;10.40;;;8.50;61.60;;;;;;6187203;23;20069;-84
2022/03/13 07:35:38;;;;;;;19.27;11.63;;;8.50;61.20;;;;;;6185484;23;20467;-83
2022/03/13 07:38:06;;;;;;;16.35;10.70;;;8.50;63.70;;;;;;6159830;23;20100;-83
2022/03/13 07:40:33;;;;;;;17.67;10.65;;;8.60;62.70;;;;;;6186557;23;20036;-84
2022/03/13 07:43:00;;;;;;;16.55;10.48;;;8.60;61.90;;;;;;6185725;23;20021;-83
2022/03/13 07:45:36;;;;;;;17.42;11.30;;;8.60;61.80;;;;;;6187057;23;20053;-84
2022/03/13 07:48:13;;;;;;;19.55;11.27;;;8.60;62.70;;;;;;6186906;23;20061;-84
2022/03/13 07:51:07;;;;;;;19.67;11.20;;;8.70;62.80;;;;;;6187113;23;20033;-85
2022/03/13 07:53:34;;;;;;;17.35;10.77;;;8.60;63.70;;;;;;6186875;23;20025;-83
2022/03/13 07:56:07;;;;;;;16.25;10.82;;;8.60;63.30;;;;;;6159178;23;20024;-84
2022/03/13 07:58:40;;;;;;;19.13;11.13;;;8.60;62.90;;;;;;6186925;23;20076;-84
2022/03/13 08:01:39;;;;;;;20.30;10.32;;;8.50;62.40;;;;;;6158412;23;20030;-84
2022/03/13 08:04:24;;;;;;;18.45;11.18;;;8.50;62.60;;;;;;6162351;23;20025;-84
2022/03/13 08:06:54;;;;;;;20.23;11.15;;;8.50;63.50;;;;;;6162473;23;20025;-84
2022/03/13 08:09:21;;;;;;;17.63;11.18;;;8.50;63.70;;;;;;6162915;23;20020;-83
2022/03/13 08:12:11;;;;;;;18.35;11.15;;;8.50;64.20;;;;;;6164785;23;20016;-84
2022/03/13 08:14:52;;;;;;;25.05;11.55;;;8.50;64.60;;;;;;6164619;23;20780;-85
2022/03/13 08:17:21;;;;;;;;;;;8.50;63.80;;;;;;6162595;23;20064;-84
2022/03/13 08:20:10;;;;;;;17.88;10.32;;;8.60;64.60;;;;;;6187787;23;19928;-85
2022/03/13 08:22:37;;;;;;;16.45;10.32;;;8.60;63.60;;;;;;6187664;23;20049;-84
2022/03/13 08:25:06;;;;;;;18.27;10.80;;;8.60;62.30;;;;;;6160232;23;20018;-84
2022/03/13 08:27:34;;;;;;;20.00;10.70;;;8.70;63.60;;;;;;6137246;23;20029;-83
2022/03/13 08:30:04;;;;;;;20.33;10.57;;;8.70;62.20;;;;;;6162913;23;20096;-84
2022/03/13 08:32:34;;;;;;;20.33;11.52;;;8.80;62.80;;;;;;6160431;23;20108;-84
2022/03/13 08:35:26;;;;;;;18.45;10.73;;;8.80;63.30;;;;;;6160478;23;20028;-84
2022/03/13 08:37:58;;;;;;;16.98;10.68;;;8.90;62.20;;;;;;6150636;23;21039;-84
2022/03/13 08:40:25;;;;;;;18.17;10.50;;;9.00;62.20;;;;;;6186330;23;20078;-84
2022/03/13 08:43:06;;;;;;;16.63;10.98;;;9.10;61.50;;;;;;6105633;23;20009;-84
2022/03/13 08:45:47;;;;;;;19.00;10.05;;;9.00;60.70;;;;;;6160674;23;20106;-83
2022/03/13 08:48:24;;;;;;;20.35;10.55;;;9.00;60.00;;;;;;6188229;23;20036;-84
2022/03/13 08:50:54;;;;;;;16.40;10.00;;;9.00;59.70;;;;;;6187491;23;20093;-85
2022/03/13 08:53:33;;;;;;;18.00;10.13;;;8.90;59.50;;;;;;6159498;23;20021;-85
2022/03/13 08:56:51;;;;;;;19.98;10.88;;;9.00;60.60;;;;;;6159933;23;20104;-87
2022/03/13 08:59:36;;;;;;;17.60;9.85;;;9.00;59.60;;;;;;6163856;23;20073;-87
2022/03/13 09:02:05;;;;;;;20.67;10.07;;;8.90;59.00;;;;;;6185423;23;20088;-85
2022/03/13 09:05:11;;;;;;;20.90;10.05;;;8.80;57.30;;;;;;6185326;23;20076;-86
2022/03/13 09:07:49;;;;;;;19.30;10.05;;;8.70;57.60;;;;;;6156603;23;20021;-86
2022/03/13 09:10:30;;;;;;;17.55;9.90;;;8.70;57.70;;;;;;6177519;23;20045;-85
2022/03/13 09:12:56;;;;;;;17.40;10.30;;;8.70;57.50;;;;;;6155945;23;20508;-85
2022/03/13 09:15:23;;;;;;;17.25;10.13;;;8.70;57.80;;;;;;6184669;23;20057;-85
2022/03/13 09:18:06;;;;;;;17.13;10.63;;;8.80;57.30;;;;;;6180318;23;20060;-85
2022/03/13 09:20:33;;;;;;;16.05;9.27;;;9.00;56.90;;;;;;6184776;23;20022;-86
2022/03/13 09:23:00;;;;;;;17.45;9.13;;;9.10;57.10;;;;;;6184627;23;20025;-85
2022/03/13 09:25:42;;;;;;;15.52;9.65;;;9.30;56.60;;;;;;6162031;23;20029;-86
2022/03/13 09:28:49;;;;;;;19.45;10.18;;;9.30;55.30;;;;;;6187317;23;20025;-85
2022/03/13 09:31:19;;;;;;;16.40;9.85;;;9.50;54.80;;;;;;6147016;23;20047;-86
2022/03/13 09:33:49;;;;;;;18.35;9.95;;;9.60;54.20;;;;;;6161341;23;20029;-86
2022/03/13 09:36:26;;;;;;;16.85;9.50;;;9.70;53.80;;;;;;6186824;23;20056;-85
2022/03/13 09:38:56;;;;;;;16.92;10.20;;;9.80;54.10;;;;;;6184512;23;20864;-85
2022/03/13 09:41:30;;;;;;;19.48;10.00;;;9.90;51.60;;;;;;6159968;23;20018;-85
2022/03/13 09:43:57;;;;;;;14.57;9.35;;;10.20;53.20;;;;;;6163223;23;20373;-86
2022/03/13 09:46:43;;;;;;;15.80;9.88;;;10.80;52.00;;;;;;6159335;23;20022;-86
2022/03/13 09:49:16;;;;;;;17.45;9.88;;;11.10;51.10;;;;;;6165033;23;20014;-85
2022/03/13 09:52:03;;;;;;;17.10;10.05;;;11.60;50.10;;;;;;6162914;23;20013;-86
2022/03/13 09:54:58;;;;;;;18.77;10.05;;;12.20;51.60;;;;;;6162573;23;20022;-86
2022/03/13 09:57:29;;;;;;;14.55;10.07;;;13.00;48.40;;;;;;6142596;23;20045;-85
2022/03/13 10:00:06;;;;;;;16.05;10.40;;;13.30;48.80;;;;;;6161057;23;20562;-86
2022/03/13 10:02:54;;;;;;;17.90;10.02;;;13.50;47.90;;;;;;6163159;23;20081;-85
2022/03/13 10:06:03;;;;;;;19.55;10.80;;;13.40;45.50;;;;;;6162632;23;20025;-86
2022/03/13 10:08:39;;;;;;;17.75;11.32;;;13.20;45.90;;;;;;6159128;23;20033;-86
2022/03/13 10:14:10;;;;;;;;;;;13.90;46.30;;;;;;6171223;23;20810;-85
2022/03/13 10:16:54;;;;;;;18.80;10.52;;;14.10;45.80;;;;;;6095327;23;19921;-87
2022/03/13 10:19:41;;;;;;;18.65;10.48;;;14.10;45.00;;;;;;6144938;23;20026;-86
2022/03/13 10:22:31;;;;;;;15.32;10.50;;;13.70;45.50;;;;;;6159975;23;20053;-86
2022/03/13 10:24:59;;;;;;;17.20;9.98;;;13.90;46.30;;;;;;6160478;23;20073;-87
2022/03/13 10:27:33;;;;;;;16.27;10.50;;;14.20;46.50;;;;;;6188975;23;20025;-86
2022/03/13 10:30:10;;;;;;;20.27;12.13;;;14.60;45.70;;;;;;6187742;23;20026;-87
2022/03/13 10:32:38;;;;;;;18.27;11.40;;;14.70;44.90;;;;;;6160237;23;20029;-86
2022/03/13 10:35:06;;;;;;;16.52;10.55;;;14.60;44.90;;;;;;6187756;23;20125;-86
2022/03/13 10:37:44;;;;;;;16.98;10.55;;;15.10;46.00;;;;;;6186162;23;20022;-86
2022/03/13 10:40:52;;;;;;;17.63;11.50;;;15.20;43.30;;;;;;6185772;23;20030;-86
2022/03/13 10:43:29;;;;;;;16.13;11.00;;;15.00;44.20;;;;;;6161954;23;20091;-87
2022/03/13 10:46:09;;;;;;;18.90;10.68;;;14.80;44.90;;;;;;6160020;23;20045;-86
2022/03/13 10:48:52;;;;;;;18.58;11.13;;;15.00;44.70;;;;;;6183100;23;20060;-85
2022/03/13 10:51:49;;;;;;;15.73;10.73;;;14.90;44.70;;;;;;6161365;23;20756;-86
2022/03/13 10:54:37;;;;;;;16.95;10.90;;;14.90;43.70;;;;;;6164434;23;20057;-85
2022/03/13 10:57:52;;;;;;;19.85;11.35;;;14.70;45.20;;;;;;6171068;23;20010;-88
2022/03/13 11:00:35;;;;;;;17.48;10.55;;;14.60;45.90;;;;;;6190232;23;20025;-88
2022/03/13 11:03:10;;;;;;;16.40;10.38;;;14.80;45.80;;;;;;6168895;23;20026;-86
2022/03/13 11:05:51;;;;;;;15.20;10.40;;;14.80;44.60;;;;;;6169564;23;20029;-85
2022/03/13 11:08:44;;;;;;;18.65;11.30;;;14.90;46.00;;;;;;6196480;23;20037;-88
2022/03/13 11:11:31;;;;;;;22.38;11.27;;;15.20;43.60;;;;;;6167407;23;20017;-87
2022/03/13 11:14:15;;;;;;;17.52;10.73;;;15.00;44.40;;;;;;6163865;23;20025;-88
2022/03/13 11:16:42;;;;;;;16.17;10.52;;;15.00;44.90;;;;;;6162909;23;20032;-87
2022/03/13 11:19:30;;;;;;;17.73;11.30;;;15.30;44.30;;;;;;6189534;23;20578;-88
2022/03/13 11:22:03;;;;;;;15.43;11.05;;;15.50;43.90;;;;;;6189372;23;20554;-87
2022/03/13 11:24:31;;;;;;;18.88;10.98;;;15.70;43.60;;;;;;6167840;23;20094;-85
2022/03/13 11:27:11;;;;;;;16.60;10.63;;;15.80;42.60;;;;;;6164318;23;20021;-87
2022/03/13 11:30:00;;;;;;;17.00;11.02;;;15.80;44.20;;;;;;6162470;23;20813;-87
2022/03/13 11:32:53;;;;;;;18.58;10.15;;;15.80;42.60;;;;;;6157560;23;20078;-86
2022/03/13 11:35:36;;;;;;;17.70;10.18;;;15.80;43.70;;;;;;6106173;23;20037;-87
2022/03/13 11:38:22;;;;;;;15.32;10.00;;;15.60;42.40;;;;;;6155656;23;20030;-87
2022/03/13 11:40:51;;;;;;;14.13;10.05;;;15.70;43.80;;;;;;6155779;23;20410;-87
2022/03/13 11:46:52;;;;;;;13.55;8.90;;;15.70;44.10;;;;;;6155970;23;20499;-88
2022/03/13 11:49:43;;;;;;;14.55;9.13;;;15.40;42.20;;;;;;6156520;23;20265;-88
2022/03/13 11:52:20;;;;;;;14.18;9.18;;;15.40;43.50;;;;;;6131415;23;20124;-87
2022/03/13 11:55:19;;;;;;;13.73;8.90;;;15.50;44.90;;;;;;6156059;23;20022;-87
2022/03/13 11:58:00;;;;;;;13.57;9.13;;;15.60;42.90;;;;;;6146961;23;20121;-87
2022/03/13 12:00:28;;;;;;;14.65;9.65;;;15.60;45.00;;;;;;6151150;23;20101;-85
2022/03/13 12:03:08;;;;;;;14.07;9.88;;;16.00;44.30;;;;;;6155464;23;20022;-86
2022/03/13 12:05:46;;;;;;;13.43;10.05;;;16.20;43.20;;;;;;6158691;23;20022;-85
2022/03/13 12:09:08;;;;;;;14.88;10.18;;;16.20;42.80;;;;;;6156267;23;20014;-86
2022/03/13 12:12:17;;;;;;;19.70;9.85;;;15.80;43.40;;;;;;6036933;23;20061;-87
2022/03/13 12:15:10;;;;;;;16.55;9.93;;;15.60;42.20;;;;;;6154956;23;20689;-85
2022/03/13 12:21:35;;;;;;;15.02;9.93;;;15.80;42.90;;;;;;6137106;23;20109;-87
2022/03/13 12:24:32;;;;;;;16.23;9.75;;;16.10;42.80;;;;;;6151945;23;20025;-87
2022/03/13 12:27:07;;;;;;;15.52;10.00;;;16.10;43.70;;;;;;6157027;23;20049;-87
2022/03/13 12:29:34;;;;;;;14.95;9.73;;;16.40;43.10;;;;;;6155265;23;20025;-87
2022/03/13 12:32:13;;;;;;;16.02;10.05;;;16.50;43.90;;;;;;6153780;23;20026;-89
2022/03/13 12:34:47;;;;;;;13.13;9.00;;;16.30;42.20;;;;;;6158507;23;20456;-88
2022/03/13 12:37:14;;;;;;;18.05;9.50;;;16.30;41.80;;;;;;6131497;23;20167;-88
2022/03/13 12:39:52;;;;;;;15.52;9.35;;;16.10;41.90;;;;;;6157542;23;20124;-85
2022/03/13 12:42:37;;;;;;;15.10;9.60;;;16.10;43.20;;;;;;6149592;23;20028;-88
2022/03/13 12:45:16;;;;;;;15.85;9.15;;;16.10;42.40;;;;;;6155856;23;20018;-87
2022/03/13 12:48:15;;;;;;;15.95;10.15;;;16.10;43.10;;;;;;6156545;23;20018;-85
2022/03/13 12:50:52;;;;;;;20.65;9.65;;;16.20;42.50;;;;;;6160014;23;20018;-85
2022/03/13 12:53:26;;;;;;;14.15;10.10;;;16.30;42.70;;;;;;6158285;23;20085;-84
2022/03/13 12:56:03;;;;;;;14.60;9.82;;;16.50;43.50;;;;;;6156962;23;20018;-88
2022/03/13 12:58:43;;;;;;;15.93;8.77;;;16.40;41.70;;;;;;6127234;23;20073;-88
2022/03/13 13:01:42;;;;;;;16.42;9.27;;;16.40;42.30;;;;;;6153124;23;20529;-87
2022/03/13 13:04:19;;;;;;;15.93;9.75;;;16.20;41.50;;;;;;6157486;23;20010;-87
2022/03/13 13:06:57;;;;;;;13.68;9.27;;;16.20;42.80;;;;;;6154347;23;20032;-87
2022/03/13 13:09:58;;;;;;;17.15;9.13;;;16.10;42.10;;;;;;6152646;23;20263;-87
2022/03/13 13:12:42;;;;;;;13.68;9.25;;;16.30;42.30;;;;;;6137078;23;20540;-87
2022/03/13 13:15:15;;;;;;;13.45;8.57;;;16.30;42.60;;;;;;6155497;23;20030;-87
2022/03/13 13:17:49;;;;;;;13.32;9.38;;;16.40;42.50;;;;;;6158026;23;20099;-87
2022/03/13 13:20:27;;;;;;;13.15;8.68;;;16.60;43.70;;;;;;6157998;23;20022;-87
2022/03/13 13:23:31;;;;;;;13.00;9.00;;;16.80;44.30;;;;;;6157199;23;20093;-86
2022/03/13 13:26:04;;;;;;;12.35;8.55;;;16.70;43.20;;;;;;6157548;23;20030;-86
2022/03/13 13:28:37;;;;;;;12.55;7.90;;;16.70;42.60;;;;;;6159865;23;20064;-87
2022/03/13 13:31:05;;;;;;;9.68;7.50;;;16.70;42.20;;;;;;6157143;23;20330;-86
2022/03/13 13:33:52;;;;;;;13.75;7.53;;;16.70;42.80;;;;;;6161418;23;20032;-86
2022/03/13 13:37:09;;;;;;;9.70;6.50;;;16.60;42.10;;;;;;6075163;23;20071;-87
2022/03/13 13:39:36;;;;;;;11.93;6.70;;;16.50;42.50;;;;;;6068985;23;20084;-86
2022/03/13 13:42:21;;;;;;;9.35;6.57;;;16.30;43.10;;;;;;6068884;23;20023;-87
2022/03/13 13:44:48;;;;;;;10.52;6.72;;;16.50;44.20;;;;;;6092723;23;21560;-86
2022/03/13 13:47:45;;;;;;;9.75;6.05;;;16.70;44.10;;;;;;5960329;23;20020;-87
2022/03/13 13:50:33;;;;;;;10.07;6.40;;;16.70;43.80;;;;;;6054974;23;20037;-88
2022/03/13 13:53:03;;;;;;;10.80;6.28;;;17.00;42.90;;;;;;6157470;23;20088;-87
2022/03/13 13:56:11;;;;;;;10.35;7.18;;;16.80;42.20;;;;;;6186866;23;20097;-87